createdAt,value
2022-12-18T01:00:37.375Z,94.8
2022-12-18T01:06:28.395Z,94.5
2022-12-18T01:12:19.135Z,94.8
2022-12-18T01:18:09.595Z,95.1
2022-12-18T01:24:00.660Z,95.3
2022-12-18T01:29:51.115Z,95.6
2022-12-18T01:35:41.674Z,95.7
2022-12-18T01:41:32.516Z,95
2022-12-18T01:47:23.516Z,95
2022-12-18T01:53:14.385Z,94.9
2022-12-18T01:59:05.554Z,94.7
2022-12-18T02:04:56.204Z,94.7
2022-12-18T02:10:47.018Z,95.1
2022-12-18T02:16:39.637Z,94.7
2022-12-18T02:22:30.830Z,94.8
2022-12-18T02:28:21.829Z,94.7
2022-12-18T02:34:13.326Z,95.1
2022-12-18T02:40:03.980Z,95.3
2022-12-18T02:45:55.050Z,94.9
2022-12-18T02:51:46.825Z,95.3
2022-12-18T02:57:37.729Z,95.3
2022-12-18T03:03:28.694Z,96.3
2022-12-18T03:09:20.338Z,95.5
2022-12-18T03:15:17.901Z,95.7
2022-12-18T03:21:08.824Z,95.7
2022-12-18T03:26:59.846Z,96.1
2022-12-18T03:32:50.508Z,95.7
2022-12-18T03:38:48.266Z,95.6
2022-12-18T03:44:38.762Z,95.4
2022-12-18T03:50:30.145Z,95
2022-12-18T03:56:21.748Z,95
2022-12-18T04:02:13.876Z,94.9
2022-12-18T04:08:05.630Z,95.5
2022-12-18T04:13:59.254Z,95
2022-12-18T04:20:06.837Z,95.3
2022-12-18T04:25:57.888Z,95.9
2022-12-18T04:31:48.457Z,96.3
2022-12-18T04:37:39.571Z,96.2
2022-12-18T04:43:30.119Z,96.3
2022-12-18T04:49:21.188Z,95.8
2022-12-18T04:55:12.976Z,96
2022-12-18T05:01:03.678Z,96.1
2022-12-18T05:06:55.733Z,96.4
2022-12-18T05:12:46.093Z,96.6
2022-12-18T05:18:36.858Z,96.6
2022-12-18T05:24:29.039Z,96.9
2022-12-18T05:30:20.470Z,96.8
2022-12-18T05:36:11.780Z,96.9
2022-12-18T05:42:02.769Z,96.9
2022-12-18T05:47:54.099Z,97.2
2022-12-18T05:53:46.068Z,97.3
2022-12-18T05:59:37.177Z,97.4
2022-12-18T06:05:27.785Z,97.2
2022-12-18T06:11:18.939Z,97.2
2022-12-18T06:17:10.188Z,97.4
2022-12-18T06:23:01.092Z,97.5
2022-12-18T06:28:51.583Z,97.4
2022-12-18T06:34:42.612Z,97.5
2022-12-18T06:40:32.697Z,97.7
2022-12-18T06:46:23.446Z,97.4
2022-12-18T06:52:14.471Z,97.7
2022-12-18T11:42:06.957Z,92.9
2022-12-18T11:48:30.376Z,92.7
2022-12-18T12:07:03.024Z,93.1
2022-12-18T12:13:29.190Z,93.3
2022-12-18T12:19:53.447Z,93.5
2022-12-18T12:26:11.018Z,93.3
2022-12-18T12:39:33.512Z,93.2
2022-12-18T12:53:02.422Z,92.6
2022-12-18T12:59:13.273Z,92.9
2022-12-18T13:05:33.431Z,92.4
2022-12-18T14:26:58.930Z,91.9
2022-12-18T14:32:52.611Z,91.8
2022-12-18T14:39:04.708Z,92
2022-12-18T14:45:16.177Z,91.5
2022-12-18T14:58:03.837Z,91.3
2022-12-18T15:04:09.896Z,91.1
2022-12-18T15:10:13.410Z,91.3
2022-12-18T15:16:20.884Z,91.3
2022-12-18T15:35:15.290Z,92.2
2022-12-18T15:41:47.634Z,92.5
2022-12-18T15:47:53.173Z,92.8
2022-12-18T15:59:57.582Z,93.3
2022-12-18T16:06:09.705Z,93.5
2022-12-18T16:12:01.889Z,93.7
2022-12-18T16:38:25.103Z,94
2022-12-18T16:45:01.398Z,94
2022-12-18T16:50:58.644Z,94.1
2022-12-18T16:56:49.919Z,94.4
2022-12-18T17:09:27.325Z,94.5
2022-12-18T17:15:47.117Z,94.4
2022-12-18T17:22:30.528Z,94.4
2022-12-18T17:47:10.565Z,94.8
2022-12-18T18:33:19.911Z,95.2
2022-12-18T19:12:47.520Z,95
2022-12-18T19:19:08.904Z,94.7
2022-12-18T19:25:14.727Z,95
2022-12-18T19:31:37.287Z,95.3
2022-12-18T19:37:56.608Z,95.2
2022-12-18T19:50:31.912Z,95.2
2022-12-18T20:09:36.023Z,95.8
2022-12-18T20:15:32.181Z,95.8
2022-12-18T22:01:42.991Z,100
2022-12-18T22:21:53.890Z,100
2022-12-18T22:41:26.245Z,100
2022-12-18T22:54:16.088Z,100
2022-12-18T23:00:15.606Z,100
2022-12-18T23:44:59.897Z,100
2022-12-18T23:51:39.524Z,100
2022-12-18T23:57:53.039Z,100
